sensor_id;sensor_type;location;lat;lon;timestamp;P1;durP1;ratioP1;P2;durP2;ratioP2
52380;SDS011;38310;52.796;6.942;2023-07-31T00:01:48;5.00;;;2.97;;
52380;SDS011;38310;52.796;6.942;2023-07-31T00:04:33;6.40;;;2.45;;
52380;SDS011;38310;52.796;6.942;2023-07-31T00:06:59;6.57;;;2.90;;
52380;SDS011;38310;52.796;6.942;2023-07-31T00:09:24;4.55;;;3.10;;
52380;SDS011;38310;52.796;6.942;2023-07-31T00:11:50;4.15;;;2.60;;
52380;SDS011;38310;52.796;6.942;2023-07-31T00:14:16;4.60;;;2.95;;
52380;SDS011;38310;52.796;6.942;2023-07-31T00:16:42;4.22;;;2.80;;
52380;SDS011;38310;52.796;6.942;2023-07-31T00:19:08;6.68;;;3.15;;
52380;SDS011;38310;52.796;6.942;2023-07-31T00:21:35;5.35;;;2.83;;
52380;SDS011;38310;52.796;6.942;2023-07-31T00:24:00;5.05;;;3.25;;
52380;SDS011;38310;52.796;6.942;2023-07-31T00:26:26;5.95;;;2.65;;
52380;SDS011;38310;52.796;6.942;2023-07-31T00:28:55;5.53;;;3.17;;
52380;SDS011;38310;52.796;6.942;2023-07-31T00:31:20;3.90;;;2.55;;
52380;SDS011;38310;52.796;6.942;2023-07-31T00:33:46;4.90;;;3.10;;
52380;SDS011;38310;52.796;6.942;2023-07-31T00:36:12;4.90;;;3.40;;
52380;SDS011;38310;52.796;6.942;2023-07-31T00:38:38;8.75;;;3.90;;
52380;SDS011;38310;52.796;6.942;2023-07-31T00:41:03;5.22;;;3.08;;
52380;SDS011;38310;52.796;6.942;2023-07-31T00:43:29;4.45;;;3.03;;
52380;SDS011;38310;52.796;6.942;2023-07-31T00:45:55;5.90;;;3.30;;
52380;SDS011;38310;52.796;6.942;2023-07-31T00:48:21;5.45;;;3.42;;
52380;SDS011;38310;52.796;6.942;2023-07-31T00:50:47;4.15;;;2.90;;
52380;SDS011;38310;52.796;6.942;2023-07-31T00:53:13;5.35;;;3.25;;
52380;SDS011;38310;52.796;6.942;2023-07-31T00:55:39;6.05;;;3.22;;
52380;SDS011;38310;52.796;6.942;2023-07-31T00:58:05;5.35;;;3.28;;
52380;SDS011;38310;52.796;6.942;2023-07-31T01:00:31;5.03;;;3.20;;
52380;SDS011;38310;52.796;6.942;2023-07-31T01:02:57;4.82;;;3.42;;
52380;SDS011;38310;52.796;6.942;2023-07-31T01:05:29;4.35;;;3.30;;
52380;SDS011;38310;52.796;6.942;2023-07-31T01:11:10;4.60;;;3.13;;
52380;SDS011;38310;52.796;6.942;2023-07-31T01:13:42;4.18;;;2.58;;
52380;SDS011;38310;52.796;6.942;2023-07-31T01:16:09;4.65;;;2.88;;
52380;SDS011;38310;52.796;6.942;2023-07-31T01:18:35;4.43;;;3.20;;
52380;SDS011;38310;52.796;6.942;2023-07-31T01:21:03;5.55;;;3.30;;
52380;SDS011;38310;52.796;6.942;2023-07-31T01:23:51;5.55;;;2.53;;
52380;SDS011;38310;52.796;6.942;2023-07-31T01:26:40;3.72;;;2.70;;
52380;SDS011;38310;52.796;6.942;2023-07-31T01:31:40;3.58;;;2.42;;
52380;SDS011;38310;52.796;6.942;2023-07-31T01:34:08;3.72;;;2.70;;
52380;SDS011;38310;52.796;6.942;2023-07-31T01:36:36;4.95;;;2.80;;
52380;SDS011;38310;52.796;6.942;2023-07-31T01:39:02;4.20;;;2.55;;
52380;SDS011;38310;52.796;6.942;2023-07-31T01:41:29;3.08;;;2.30;;
52380;SDS011;38310;52.796;6.942;2023-07-31T01:43:54;4.10;;;2.38;;
52380;SDS011;38310;52.796;6.942;2023-07-31T01:46:20;6.28;;;2.38;;
52380;SDS011;38310;52.796;6.942;2023-07-31T01:48:46;2.97;;;1.90;;
52380;SDS011;38310;52.796;6.942;2023-07-31T01:51:12;3.28;;;1.92;;
52380;SDS011;38310;52.796;6.942;2023-07-31T01:53:38;2.75;;;1.90;;
52380;SDS011;38310;52.796;6.942;2023-07-31T01:56:04;2.08;;;1.70;;
52380;SDS011;38310;52.796;6.942;2023-07-31T01:58:29;3.47;;;1.88;;
52380;SDS011;38310;52.796;6.942;2023-07-31T02:00:55;3.17;;;1.95;;
52380;SDS011;38310;52.796;6.942;2023-07-31T02:03:21;2.83;;;1.70;;
52380;SDS011;38310;52.796;6.942;2023-07-31T02:05:48;3.20;;;1.70;;
52380;SDS011;38310;52.796;6.942;2023-07-31T02:08:16;2.63;;;1.60;;
52380;SDS011;38310;52.796;6.942;2023-07-31T02:10:42;3.20;;;1.60;;
52380;SDS011;38310;52.796;6.942;2023-07-31T02:13:08;2.22;;;1.45;;
52380;SDS011;38310;52.796;6.942;2023-07-31T02:15:34;3.95;;;1.70;;
52380;SDS011;38310;52.796;6.942;2023-07-31T02:18:00;2.50;;;1.65;;
52380;SDS011;38310;52.796;6.942;2023-07-31T02:20:26;3.38;;;2.10;;
52380;SDS011;38310;52.796;6.942;2023-07-31T02:22:51;2.72;;;1.83;;
52380;SDS011;38310;52.796;6.942;2023-07-31T02:25:25;2.03;;;1.58;;
52380;SDS011;38310;52.796;6.942;2023-07-31T02:27:50;3.55;;;1.83;;
52380;SDS011;38310;52.796;6.942;2023-07-31T02:30:16;2.88;;;2.17;;
52380;SDS011;38310;52.796;6.942;2023-07-31T02:32:42;2.53;;;1.90;;
52380;SDS011;38310;52.796;6.942;2023-07-31T02:35:08;3.17;;;2.20;;
52380;SDS011;38310;52.796;6.942;2023-07-31T02:37:34;3.47;;;2.17;;
52380;SDS011;38310;52.796;6.942;2023-07-31T02:39:59;3.13;;;2.00;;
52380;SDS011;38310;52.796;6.942;2023-07-31T02:42:25;2.63;;;2.10;;
52380;SDS011;38310;52.796;6.942;2023-07-31T02:44:51;3.13;;;2.35;;
52380;SDS011;38310;52.796;6.942;2023-07-31T02:47:21;3.95;;;2.90;;
52380;SDS011;38310;52.796;6.942;2023-07-31T02:49:47;4.53;;;2.75;;
52380;SDS011;38310;52.796;6.942;2023-07-31T02:52:13;3.83;;;2.97;;
52380;SDS011;38310;52.796;6.942;2023-07-31T02:54:38;3.90;;;2.53;;
52380;SDS011;38310;52.796;6.942;2023-07-31T02:57:04;4.38;;;2.90;;
52380;SDS011;38310;52.796;6.942;2023-07-31T02:59:30;3.13;;;2.13;;
52380;SDS011;38310;52.796;6.942;2023-07-31T03:01:56;4.20;;;2.85;;
52380;SDS011;38310;52.796;6.942;2023-07-31T03:04:22;3.08;;;2.30;;
52380;SDS011;38310;52.796;6.942;2023-07-31T03:06:48;3.40;;;2.53;;
52380;SDS011;38310;52.796;6.942;2023-07-31T03:09:14;4.28;;;2.90;;
52380;SDS011;38310;52.796;6.942;2023-07-31T03:11:40;4.85;;;2.85;;
52380;SDS011;38310;52.796;6.942;2023-07-31T03:14:05;4.35;;;2.90;;
52380;SDS011;38310;52.796;6.942;2023-07-31T03:16:31;3.95;;;2.50;;
52380;SDS011;38310;52.796;6.942;2023-07-31T03:18:57;3.30;;;2.50;;
52380;SDS011;38310;52.796;6.942;2023-07-31T03:21:23;4.15;;;2.40;;
52380;SDS011;38310;52.796;6.942;2023-07-31T03:23:48;4.95;;;3.10;;
52380;SDS011;38310;52.796;6.942;2023-07-31T03:26:14;4.05;;;3.08;;
52380;SDS011;38310;52.796;6.942;2023-07-31T03:28:40;3.45;;;2.60;;
52380;SDS011;38310;52.796;6.942;2023-07-31T03:31:05;3.83;;;2.63;;
52380;SDS011;38310;52.796;6.942;2023-07-31T03:33:33;3.45;;;2.53;;
52380;SDS011;38310;52.796;6.942;2023-07-31T03:35:59;4.07;;;2.85;;
52380;SDS011;38310;52.796;6.942;2023-07-31T03:38:25;4.93;;;2.92;;
52380;SDS011;38310;52.796;6.942;2023-07-31T03:40:50;5.20;;;2.55;;
52380;SDS011;38310;52.796;6.942;2023-07-31T03:43:16;5.53;;;2.60;;
52380;SDS011;38310;52.796;6.942;2023-07-31T03:45:42;4.18;;;1.92;;
52380;SDS011;38310;52.796;6.942;2023-07-31T03:48:08;2.78;;;1.70;;
52380;SDS011;38310;52.796;6.942;2023-07-31T03:50:34;3.08;;;2.00;;
52380;SDS011;38310;52.796;6.942;2023-07-31T03:53:04;4.20;;;2.13;;
52380;SDS011;38310;52.796;6.942;2023-07-31T03:55:30;4.15;;;2.40;;
52380;SDS011;38310;52.796;6.942;2023-07-31T03:57:55;3.78;;;1.88;;
52380;SDS011;38310;52.796;6.942;2023-07-31T04:00:21;2.25;;;1.88;;
52380;SDS011;38310;52.796;6.942;2023-07-31T04:02:48;3.50;;;2.28;;
52380;SDS011;38310;52.796;6.942;2023-07-31T04:05:13;2.60;;;1.75;;
52380;SDS011;38310;52.796;6.942;2023-07-31T04:07:39;3.40;;;2.10;;
52380;SDS011;38310;52.796;6.942;2023-07-31T04:10:05;4.30;;;2.10;;
52380;SDS011;38310;52.796;6.942;2023-07-31T04:12:31;4.75;;;2.10;;
52380;SDS011;38310;52.796;6.942;2023-07-31T04:14:57;2.55;;;1.77;;
52380;SDS011;38310;52.796;6.942;2023-07-31T04:17:23;3.45;;;1.98;;
52380;SDS011;38310;52.796;6.942;2023-07-31T04:19:48;2.70;;;1.88;;
52380;SDS011;38310;52.796;6.942;2023-07-31T04:22:14;2.75;;;1.67;;
52380;SDS011;38310;52.796;6.942;2023-07-31T04:24:40;3.40;;;1.88;;
52380;SDS011;38310;52.796;6.942;2023-07-31T04:27:08;2.53;;;1.65;;
52380;SDS011;38310;52.796;6.942;2023-07-31T04:29:34;1.65;;;1.33;;
52380;SDS011;38310;52.796;6.942;2023-07-31T04:32:00;2.15;;;1.17;;
52380;SDS011;38310;52.796;6.942;2023-07-31T04:34:26;2.05;;;1.38;;
52380;SDS011;38310;52.796;6.942;2023-07-31T04:36:51;2.20;;;1.10;;
52380;SDS011;38310;52.796;6.942;2023-07-31T04:39:17;2.35;;;1.20;;
52380;SDS011;38310;52.796;6.942;2023-07-31T04:41:43;2.00;;;1.40;;
52380;SDS011;38310;52.796;6.942;2023-07-31T04:44:08;1.63;;;1.00;;
52380;SDS011;38310;52.796;6.942;2023-07-31T04:46:36;2.05;;;1.20;;
52380;SDS011;38310;52.796;6.942;2023-07-31T04:49:02;1.30;;;1.00;;
52380;SDS011;38310;52.796;6.942;2023-07-31T04:51:28;1.38;;;1.00;;
52380;SDS011;38310;52.796;6.942;2023-07-31T04:53:54;1.42;;;0.98;;
52380;SDS011;38310;52.796;6.942;2023-07-31T04:56:21;2.10;;;1.10;;
52380;SDS011;38310;52.796;6.942;2023-07-31T04:58:47;1.98;;;1.15;;
52380;SDS011;38310;52.796;6.942;2023-07-31T05:01:12;4.40;;;1.77;;
52380;SDS011;38310;52.796;6.942;2023-07-31T05:03:38;3.35;;;1.50;;
52380;SDS011;38310;52.796;6.942;2023-07-31T05:06:05;3.33;;;1.75;;
52380;SDS011;38310;52.796;6.942;2023-07-31T05:08:31;6.50;;;2.50;;
52380;SDS011;38310;52.796;6.942;2023-07-31T05:10:58;8.88;;;3.47;;
52380;SDS011;38310;52.796;6.942;2023-07-31T05:13:24;7.38;;;3.50;;
52380;SDS011;38310;52.796;6.942;2023-07-31T05:15:50;12.23;;;5.10;;
52380;SDS011;38310;52.796;6.942;2023-07-31T05:18:17;9.95;;;4.72;;
52380;SDS011;38310;52.796;6.942;2023-07-31T05:20:42;13.23;;;6.32;;
52380;SDS011;38310;52.796;6.942;2023-07-31T05:23:08;12.20;;;6.68;;
52380;SDS011;38310;52.796;6.942;2023-07-31T05:25:34;19.13;;;6.95;;
52380;SDS011;38310;52.796;6.942;2023-07-31T05:27:59;18.58;;;8.25;;
52380;SDS011;38310;52.796;6.942;2023-07-31T05:30:25;13.50;;;7.20;;
52380;SDS011;38310;52.796;6.942;2023-07-31T05:32:51;15.10;;;7.97;;
52380;SDS011;38310;52.796;6.942;2023-07-31T05:35:17;16.48;;;8.73;;
52380;SDS011;38310;52.796;6.942;2023-07-31T05:37:43;20.15;;;9.57;;
52380;SDS011;38310;52.796;6.942;2023-07-31T05:40:08;19.70;;;9.40;;
52380;SDS011;38310;52.796;6.942;2023-07-31T05:42:34;23.30;;;9.68;;
52380;SDS011;38310;52.796;6.942;2023-07-31T05:45:03;18.45;;;9.18;;
52380;SDS011;38310;52.796;6.942;2023-07-31T05:47:29;28.30;;;11.02;;
52380;SDS011;38310;52.796;6.942;2023-07-31T05:49:55;23.92;;;10.60;;
52380;SDS011;38310;52.796;6.942;2023-07-31T05:52:21;24.00;;;10.75;;
52380;SDS011;38310;52.796;6.942;2023-07-31T05:54:46;18.83;;;10.57;;
52380;SDS011;38310;52.796;6.942;2023-07-31T05:57:12;26.80;;;11.32;;
52380;SDS011;38310;52.796;6.942;2023-07-31T05:59:38;23.90;;;10.55;;
52380;SDS011;38310;52.796;6.942;2023-07-31T06:02:04;29.65;;;11.48;;
52380;SDS011;38310;52.796;6.942;2023-07-31T06:04:30;24.40;;;11.52;;
52380;SDS011;38310;52.796;6.942;2023-07-31T06:06:56;24.83;;;11.23;;
52380;SDS011;38310;52.796;6.942;2023-07-31T06:09:21;24.15;;;12.43;;
52380;SDS011;38310;52.796;6.942;2023-07-31T06:11:47;24.95;;;12.48;;
52380;SDS011;38310;52.796;6.942;2023-07-31T06:14:13;27.48;;;12.30;;
52380;SDS011;38310;52.796;6.942;2023-07-31T06:16:39;26.58;;;12.45;;
52380;SDS011;38310;52.796;6.942;2023-07-31T06:19:05;25.52;;;12.45;;
52380;SDS011;38310;52.796;6.942;2023-07-31T06:21:32;29.13;;;13.00;;
52380;SDS011;38310;52.796;6.942;2023-07-31T06:23:58;24.38;;;12.15;;
52380;SDS011;38310;52.796;6.942;2023-07-31T06:26:24;24.73;;;12.52;;
52380;SDS011;38310;52.796;6.942;2023-07-31T06:28:50;26.80;;;13.90;;
52380;SDS011;38310;52.796;6.942;2023-07-31T06:31:15;28.48;;;13.85;;
52380;SDS011;38310;52.796;6.942;2023-07-31T06:33:44;28.38;;;13.50;;
52380;SDS011;38310;52.796;6.942;2023-07-31T06:36:09;26.55;;;11.98;;
52380;SDS011;38310;52.796;6.942;2023-07-31T06:38:36;27.98;;;12.88;;
52380;SDS011;38310;52.796;6.942;2023-07-31T06:41:02;27.83;;;13.30;;
52380;SDS011;38310;52.796;6.942;2023-07-31T06:43:29;22.65;;;12.27;;
52380;SDS011;38310;52.796;6.942;2023-07-31T06:45:54;25.05;;;12.85;;
52380;SDS011;38310;52.796;6.942;2023-07-31T06:48:20;23.23;;;12.77;;
52380;SDS011;38310;52.796;6.942;2023-07-31T06:50:46;22.90;;;12.15;;
52380;SDS011;38310;52.796;6.942;2023-07-31T06:53:11;23.73;;;12.27;;
52380;SDS011;38310;52.796;6.942;2023-07-31T06:55:37;24.85;;;12.73;;
52380;SDS011;38310;52.796;6.942;2023-07-31T06:58:03;22.00;;;12.45;;
52380;SDS011;38310;52.796;6.942;2023-07-31T07:00:29;26.35;;;13.00;;
52380;SDS011;38310;52.796;6.942;2023-07-31T07:02:54;20.80;;;11.27;;
52380;SDS011;38310;52.796;6.942;2023-07-31T07:05:20;22.15;;;12.25;;
52380;SDS011;38310;52.796;6.942;2023-07-31T07:07:46;22.05;;;11.40;;
52380;SDS011;38310;52.796;6.942;2023-07-31T07:10:14;21.15;;;11.38;;
52380;SDS011;38310;52.796;6.942;2023-07-31T07:12:40;23.13;;;11.25;;
52380;SDS011;38310;52.796;6.942;2023-07-31T07:15:05;21.65;;;11.80;;
52380;SDS011;38310;52.796;6.942;2023-07-31T07:17:31;21.38;;;10.75;;
52380;SDS011;38310;52.796;6.942;2023-07-31T07:19:57;19.75;;;10.35;;
52380;SDS011;38310;52.796;6.942;2023-07-31T07:22:24;18.02;;;10.50;;
52380;SDS011;38310;52.796;6.942;2023-07-31T07:24:50;17.83;;;9.73;;
52380;SDS011;38310;52.796;6.942;2023-07-31T07:27:16;21.63;;;10.00;;
52380;SDS011;38310;52.796;6.942;2023-07-31T07:29:42;18.30;;;9.35;;
52380;SDS011;38310;52.796;6.942;2023-07-31T07:32:08;14.85;;;8.70;;
52380;SDS011;38310;52.796;6.942;2023-07-31T07:34:34;15.77;;;8.32;;
52380;SDS011;38310;52.796;6.942;2023-07-31T07:36:59;16.27;;;8.25;;
52380;SDS011;38310;52.796;6.942;2023-07-31T07:39:25;14.70;;;8.02;;
52380;SDS011;38310;52.796;6.942;2023-07-31T07:41:51;13.95;;;8.10;;
52380;SDS011;38310;52.796;6.942;2023-07-31T07:44:18;14.15;;;7.60;;
52380;SDS011;38310;52.796;6.942;2023-07-31T07:46:44;15.65;;;7.93;;
52380;SDS011;38310;52.796;6.942;2023-07-31T07:49:09;14.30;;;8.00;;
52380;SDS011;38310;52.796;6.942;2023-07-31T07:51:35;13.88;;;7.47;;
52380;SDS011;38310;52.796;6.942;2023-07-31T07:54:01;13.10;;;7.70;;
52380;SDS011;38310;52.796;6.942;2023-07-31T07:56:27;14.45;;;7.80;;
52380;SDS011;38310;52.796;6.942;2023-07-31T07:58:53;17.05;;;8.57;;
52380;SDS011;38310;52.796;6.942;2023-07-31T08:01:20;13.38;;;7.85;;
52380;SDS011;38310;52.796;6.942;2023-07-31T08:03:49;13.00;;;7.38;;
52380;SDS011;38310;52.796;6.942;2023-07-31T08:06:15;12.27;;;7.57;;
52380;SDS011;38310;52.796;6.942;2023-07-31T08:08:41;15.38;;;8.07;;
52380;SDS011;38310;52.796;6.942;2023-07-31T08:11:07;13.30;;;7.30;;
52380;SDS011;38310;52.796;6.942;2023-07-31T08:13:33;12.68;;;7.25;;
52380;SDS011;38310;52.796;6.942;2023-07-31T08:15:59;10.90;;;6.80;;
52380;SDS011;38310;52.796;6.942;2023-07-31T08:18:24;12.77;;;7.28;;
52380;SDS011;38310;52.796;6.942;2023-07-31T08:20:50;10.93;;;5.90;;
52380;SDS011;38310;52.796;6.942;2023-07-31T08:23:16;12.50;;;7.00;;
52380;SDS011;38310;52.796;6.942;2023-07-31T08:25:42;9.23;;;6.03;;
52380;SDS011;38310;52.796;6.942;2023-07-31T08:28:09;9.57;;;6.35;;
52380;SDS011;38310;52.796;6.942;2023-07-31T08:30:35;8.50;;;5.63;;
52380;SDS011;38310;52.796;6.942;2023-07-31T08:33:00;10.57;;;6.10;;
52380;SDS011;38310;52.796;6.942;2023-07-31T08:35:26;9.23;;;5.40;;
52380;SDS011;38310;52.796;6.942;2023-07-31T08:37:55;11.20;;;5.95;;
52380;SDS011;38310;52.796;6.942;2023-07-31T08:40:20;8.15;;;5.20;;
52380;SDS011;38310;52.796;6.942;2023-07-31T08:42:50;10.90;;;5.50;;
52380;SDS011;38310;52.796;6.942;2023-07-31T08:45:18;11.00;;;6.38;;
52380;SDS011;38310;52.796;6.942;2023-07-31T08:47:45;8.07;;;4.95;;
52380;SDS011;38310;52.796;6.942;2023-07-31T08:50:13;7.72;;;5.00;;
52380;SDS011;38310;52.796;6.942;2023-07-31T08:52:39;7.32;;;5.20;;
52380;SDS011;38310;52.796;6.942;2023-07-31T08:55:06;7.53;;;5.53;;
52380;SDS011;38310;52.796;6.942;2023-07-31T08:57:34;7.22;;;4.75;;
52380;SDS011;38310;52.796;6.942;2023-07-31T09:00:02;6.22;;;4.25;;
52380;SDS011;38310;52.796;6.942;2023-07-31T09:02:37;6.75;;;4.55;;
52380;SDS011;38310;52.796;6.942;2023-07-31T09:05:13;5.78;;;3.80;;
52380;SDS011;38310;52.796;6.942;2023-07-31T09:07:39;6.68;;;4.10;;
52380;SDS011;38310;52.796;6.942;2023-07-31T09:10:07;7.00;;;3.67;;
52380;SDS011;38310;52.796;6.942;2023-07-31T09:12:33;6.97;;;3.70;;
52380;SDS011;38310;52.796;6.942;2023-07-31T09:14:59;5.70;;;3.25;;
52380;SDS011;38310;52.796;6.942;2023-07-31T09:17:29;5.50;;;3.50;;
52380;SDS011;38310;52.796;6.942;2023-07-31T09:20:15;5.82;;;3.70;;
52380;SDS011;38310;52.796;6.942;2023-07-31T09:22:42;6.27;;;3.50;;
52380;SDS011;38310;52.796;6.942;2023-07-31T09:25:19;5.97;;;3.10;;
52380;SDS011;38310;52.796;6.942;2023-07-31T09:27:53;6.22;;;3.35;;
52380;SDS011;38310;52.796;6.942;2023-07-31T09:30:23;3.67;;;2.60;;
52380;SDS011;38310;52.796;6.942;2023-07-31T09:32:50;4.35;;;3.28;;
52380;SDS011;38310;52.796;6.942;2023-07-31T09:35:50;4.47;;;2.30;;
52380;SDS011;38310;52.796;6.942;2023-07-31T09:38:11;4.45;;;2.75;;
52380;SDS011;38310;52.796;6.942;2023-07-31T09:40:39;4.78;;;2.80;;
52380;SDS011;38310;52.796;6.942;2023-07-31T09:43:07;4.07;;;2.60;;
52380;SDS011;38310;52.796;6.942;2023-07-31T09:45:38;5.47;;;2.20;;
52380;SDS011;38310;52.796;6.942;2023-07-31T09:48:12;3.17;;;1.95;;
52380;SDS011;38310;52.796;6.942;2023-07-31T09:50:44;3.58;;;1.90;;
52380;SDS011;38310;52.796;6.942;2023-07-31T09:53:13;3.97;;;2.10;;
52380;SDS011;38310;52.796;6.942;2023-07-31T09:55:40;3.08;;;1.85;;
52380;SDS011;38310;52.796;6.942;2023-07-31T09:58:08;3.00;;;1.70;;
52380;SDS011;38310;52.796;6.942;2023-07-31T10:00:35;2.22;;;1.65;;
52380;SDS011;38310;52.796;6.942;2023-07-31T10:03:03;2.42;;;1.80;;
52380;SDS011;38310;52.796;6.942;2023-07-31T10:05:34;3.20;;;1.92;;
52380;SDS011;38310;52.796;6.942;2023-07-31T10:08:01;2.88;;;1.65;;
52380;SDS011;38310;52.796;6.942;2023-07-31T10:10:29;2.83;;;1.45;;
52380;SDS011;38310;52.796;6.942;2023-07-31T10:12:56;2.10;;;1.42;;
52380;SDS011;38310;52.796;6.942;2023-07-31T10:15:23;1.90;;;1.60;;
52380;SDS011;38310;52.796;6.942;2023-07-31T10:17:56;2.83;;;1.67;;
52380;SDS011;38310;52.796;6.942;2023-07-31T10:20:24;2.70;;;1.80;;
52380;SDS011;38310;52.796;6.942;2023-07-31T10:22:51;3.25;;;1.67;;
52380;SDS011;38310;52.796;6.942;2023-07-31T10:25:19;2.38;;;1.60;;
52380;SDS011;38310;52.796;6.942;2023-07-31T10:27:47;2.65;;;1.80;;
52380;SDS011;38310;52.796;6.942;2023-07-31T10:30:14;3.50;;;2.00;;
52380;SDS011;38310;52.796;6.942;2023-07-31T10:32:43;3.50;;;1.95;;
52380;SDS011;38310;52.796;6.942;2023-07-31T10:35:09;3.83;;;2.22;;
52380;SDS011;38310;52.796;6.942;2023-07-31T10:37:37;3.67;;;2.20;;
52380;SDS011;38310;52.796;6.942;2023-07-31T10:40:11;3.30;;;2.58;;
52380;SDS011;38310;52.796;6.942;2023-07-31T10:45:24;3.58;;;2.50;;
52380;SDS011;38310;52.796;6.942;2023-07-31T10:48:12;4.15;;;2.90;;
52380;SDS011;38310;52.796;6.942;2023-07-31T10:50:48;5.57;;;2.85;;
52380;SDS011;38310;52.796;6.942;2023-07-31T10:53:23;4.22;;;2.78;;
52380;SDS011;38310;52.796;6.942;2023-07-31T10:55:50;4.60;;;2.85;;
52380;SDS011;38310;52.796;6.942;2023-07-31T10:58:20;3.83;;;2.85;;
52380;SDS011;38310;52.796;6.942;2023-07-31T11:00:46;3.33;;;2.47;;
52380;SDS011;38310;52.796;6.942;2023-07-31T11:03:16;3.47;;;2.60;;
52380;SDS011;38310;52.796;6.942;2023-07-31T11:05:52;3.67;;;2.47;;
52380;SDS011;38310;52.796;6.942;2023-07-31T11:08:25;4.07;;;2.83;;
52380;SDS011;38310;52.796;6.942;2023-07-31T11:16:15;3.15;;;2.40;;
52380;SDS011;38310;52.796;6.942;2023-07-31T11:18:42;2.95;;;1.95;;
52380;SDS011;38310;52.796;6.942;2023-07-31T11:21:13;4.13;;;2.28;;
52380;SDS011;38310;52.796;6.942;2023-07-31T11:23:47;3.08;;;2.10;;
52380;SDS011;38310;52.796;6.942;2023-07-31T11:26:14;4.13;;;2.33;;
52380;SDS011;38310;52.796;6.942;2023-07-31T11:28:42;3.30;;;2.50;;
52380;SDS011;38310;52.796;6.942;2023-07-31T11:31:08;2.97;;;2.47;;
52380;SDS011;38310;52.796;6.942;2023-07-31T11:33:35;3.20;;;2.25;;
52380;SDS011;38310;52.796;6.942;2023-07-31T11:36:00;4.13;;;2.80;;
52380;SDS011;38310;52.796;6.942;2023-07-31T11:38:27;3.85;;;2.42;;
52380;SDS011;38310;52.796;6.942;2023-07-31T11:40:55;4.50;;;2.30;;
52380;SDS011;38310;52.796;6.942;2023-07-31T11:43:22;2.95;;;2.08;;
52380;SDS011;38310;52.796;6.942;2023-07-31T11:45:50;3.40;;;2.22;;
52380;SDS011;38310;52.796;6.942;2023-07-31T11:48:36;3.72;;;2.70;;
52380;SDS011;38310;52.796;6.942;2023-07-31T11:51:04;2.80;;;2.33;;
52380;SDS011;38310;52.796;6.942;2023-07-31T11:56:00;3.88;;;2.35;;
52380;SDS011;38310;52.796;6.942;2023-07-31T11:58:29;2.92;;;2.25;;
52380;SDS011;38310;52.796;6.942;2023-07-31T12:00:56;3.58;;;2.70;;
52380;SDS011;38310;52.796;6.942;2023-07-31T12:03:29;3.88;;;2.13;;
52380;SDS011;38310;52.796;6.942;2023-07-31T12:05:56;2.78;;;2.38;;
52380;SDS011;38310;52.796;6.942;2023-07-31T12:08:23;2.75;;;2.10;;
52380;SDS011;38310;52.796;6.942;2023-07-31T12:10:51;3.40;;;2.10;;
52380;SDS011;38310;52.796;6.942;2023-07-31T12:13:25;3.05;;;1.98;;
52380;SDS011;38310;52.796;6.942;2023-07-31T12:18:25;2.03;;;1.13;;
52380;SDS011;38310;52.796;6.942;2023-07-31T12:20:58;1.55;;;0.98;;
52380;SDS011;38310;52.796;6.942;2023-07-31T12:23:26;1.67;;;1.00;;
52380;SDS011;38310;52.796;6.942;2023-07-31T12:26:09;1.40;;;1.10;;
52380;SDS011;38310;52.796;6.942;2023-07-31T12:31:13;2.35;;;1.02;;
52380;SDS011;38310;52.796;6.942;2023-07-31T12:33:42;1.75;;;1.30;;
52380;SDS011;38310;52.796;6.942;2023-07-31T12:36:10;2.97;;;1.83;;
52380;SDS011;38310;52.796;6.942;2023-07-31T12:38:38;3.08;;;2.30;;
52380;SDS011;38310;52.796;6.942;2023-07-31T12:41:04;5.03;;;2.90;;
52380;SDS011;38310;52.796;6.942;2023-07-31T12:43:32;4.50;;;3.22;;
52380;SDS011;38310;52.796;6.942;2023-07-31T12:46:04;4.50;;;3.30;;
52380;SDS011;38310;52.796;6.942;2023-07-31T12:48:39;6.18;;;3.10;;
52380;SDS011;38310;52.796;6.942;2023-07-31T12:51:06;4.88;;;3.33;;
52380;SDS011;38310;52.796;6.942;2023-07-31T12:53:32;6.50;;;4.00;;
52380;SDS011;38310;52.796;6.942;2023-07-31T12:55:58;6.03;;;3.80;;
52380;SDS011;38310;52.796;6.942;2023-07-31T12:58:24;6.20;;;4.00;;
52380;SDS011;38310;52.796;6.942;2023-07-31T13:00:50;5.40;;;3.95;;
52380;SDS011;38310;52.796;6.942;2023-07-31T13:03:16;4.25;;;3.35;;
52380;SDS011;38310;52.796;6.942;2023-07-31T13:05:42;5.05;;;3.45;;
52380;SDS011;38310;52.796;6.942;2023-07-31T13:08:07;5.25;;;3.30;;
52380;SDS011;38310;52.796;6.942;2023-07-31T13:10:33;4.68;;;2.90;;
52380;SDS011;38310;52.796;6.942;2023-07-31T13:12:59;6.10;;;2.83;;
52380;SDS011;38310;52.796;6.942;2023-07-31T13:15:25;5.10;;;2.80;;
52380;SDS011;38310;52.796;6.942;2023-07-31T13:17:50;6.50;;;2.97;;
52380;SDS011;38310;52.796;6.942;2023-07-31T13:20:16;5.38;;;3.03;;
52380;SDS011;38310;52.796;6.942;2023-07-31T13:22:42;5.05;;;2.88;;
52380;SDS011;38310;52.796;6.942;2023-07-31T13:25:08;3.45;;;2.10;;
52380;SDS011;38310;52.796;6.942;2023-07-31T13:27:34;4.38;;;2.83;;
52380;SDS011;38310;52.796;6.942;2023-07-31T13:30:00;5.18;;;3.33;;
52380;SDS011;38310;52.796;6.942;2023-07-31T13:32:26;5.25;;;3.40;;
52380;SDS011;38310;52.796;6.942;2023-07-31T13:34:52;5.82;;;3.35;;
52380;SDS011;38310;52.796;6.942;2023-07-31T13:37:17;6.15;;;4.00;;
52380;SDS011;38310;52.796;6.942;2023-07-31T13:39:43;5.55;;;4.07;;
52380;SDS011;38310;52.796;6.942;2023-07-31T13:42:09;5.65;;;3.90;;
52380;SDS011;38310;52.796;6.942;2023-07-31T13:44:40;4.75;;;3.60;;
52380;SDS011;38310;52.796;6.942;2023-07-31T13:47:07;7.25;;;3.95;;
52380;SDS011;38310;52.796;6.942;2023-07-31T13:49:33;8.20;;;4.10;;
52380;SDS011;38310;52.796;6.942;2023-07-31T13:51:59;6.13;;;3.40;;
52380;SDS011;38310;52.796;6.942;2023-07-31T13:54:25;4.25;;;2.88;;
52380;SDS011;38310;52.796;6.942;2023-07-31T13:56:51;4.30;;;2.53;;
52380;SDS011;38310;52.796;6.942;2023-07-31T13:59:18;4.80;;;3.22;;
52380;SDS011;38310;52.796;6.942;2023-07-31T14:01:44;5.78;;;3.22;;
52380;SDS011;38310;52.796;6.942;2023-07-31T14:04:10;4.35;;;3.05;;
52380;SDS011;38310;52.796;6.942;2023-07-31T14:06:36;5.32;;;2.78;;
52380;SDS011;38310;52.796;6.942;2023-07-31T14:09:02;5.00;;;3.10;;
52380;SDS011;38310;52.796;6.942;2023-07-31T14:11:28;4.70;;;3.30;;
52380;SDS011;38310;52.796;6.942;2023-07-31T14:13:55;4.47;;;3.40;;
52380;SDS011;38310;52.796;6.942;2023-07-31T14:16:21;5.43;;;3.45;;
52380;SDS011;38310;52.796;6.942;2023-07-31T14:18:47;7.30;;;4.18;;
52380;SDS011;38310;52.796;6.942;2023-07-31T14:21:18;6.28;;;4.18;;
52380;SDS011;38310;52.796;6.942;2023-07-31T14:23:44;5.40;;;4.28;;
52380;SDS011;38310;52.796;6.942;2023-07-31T14:26:10;7.15;;;4.07;;
52380;SDS011;38310;52.796;6.942;2023-07-31T14:28:37;7.50;;;3.58;;
52380;SDS011;38310;52.796;6.942;2023-07-31T14:31:03;5.55;;;4.07;;
52380;SDS011;38310;52.796;6.942;2023-07-31T14:33:28;4.43;;;3.75;;
52380;SDS011;38310;52.796;6.942;2023-07-31T14:35:54;5.47;;;3.03;;
52380;SDS011;38310;52.796;6.942;2023-07-31T14:38:20;6.15;;;3.05;;
52380;SDS011;38310;52.796;6.942;2023-07-31T14:40:46;5.38;;;3.10;;
52380;SDS011;38310;52.796;6.942;2023-07-31T14:43:12;4.78;;;3.08;;
52380;SDS011;38310;52.796;6.942;2023-07-31T14:45:37;6.85;;;3.28;;
52380;SDS011;38310;52.796;6.942;2023-07-31T14:48:03;5.07;;;3.05;;
52380;SDS011;38310;52.796;6.942;2023-07-31T14:50:29;4.28;;;2.75;;
52380;SDS011;38310;52.796;6.942;2023-07-31T14:52:55;7.38;;;3.17;;
52380;SDS011;38310;52.796;6.942;2023-07-31T14:55:21;6.15;;;3.50;;
52380;SDS011;38310;52.796;6.942;2023-07-31T14:57:46;5.82;;;3.10;;
52380;SDS011;38310;52.796;6.942;2023-07-31T15:00:12;5.40;;;3.45;;
52380;SDS011;38310;52.796;6.942;2023-07-31T15:02:40;6.10;;;3.50;;
52380;SDS011;38310;52.796;6.942;2023-07-31T15:05:06;5.03;;;3.47;;